Time;durP1;ratioP1;P1;durP2;ratioP2;P2;SDS_P1;SDS_P2;PMS_P1;PMS_P2;Temp;Humidity;BMP_temperature;BMP_pressure;BME280_temperature;BME280_humidity;BME280_pressure;Samples;Min_cycle;Max_cycle;Signal;HPM_P1;HPM_P2
2022/01/29 00:01:27;;;;;;;41.55;18.40;;;4.80;99.90;;;;;;5097167;28;20085;-68
2022/01/29 00:03:55;;;;;;;33.38;16.27;;;4.80;99.90;;;;;;5100053;28;20032;-68
2022/01/29 00:06:22;;;;;;;38.85;15.85;;;4.80;99.90;;;;;;5100764;28;20023;-68
2022/01/29 00:08:51;;;;;;;38.78;16.35;;;4.80;99.90;;;;;;5100674;28;20028;-68
2022/01/29 00:11:20;;;;;;;38.20;16.02;;;4.80;99.90;;;;;;5100388;28;20119;-68
2022/01/29 00:13:48;;;;;;;45.72;17.35;;;4.80;99.90;;;;;;5100693;28;20016;-68
2022/01/29 00:16:16;;;;;;;38.88;16.85;;;4.80;99.90;;;;;;5100760;28;20034;-68
2022/01/29 00:18:43;;;;;;;30.50;15.85;;;4.80;99.90;;;;;;5100384;28;20032;-68
2022/01/29 00:21:11;;;;;;;39.38;16.55;;;4.80;99.90;;;;;;5100367;28;20425;-68
2022/01/29 00:23:38;;;;;;;38.13;17.75;;;4.80;99.90;;;;;;5100636;28;20105;-68
2022/01/29 00:26:05;;;;;;;34.85;15.52;;;4.90;99.90;;;;;;5100489;28;20420;-68
2022/01/29 00:28:35;;;;;;;44.28;18.75;;;4.90;99.90;;;;;;5077931;28;20383;-68
2022/01/29 00:31:03;;;;;;;37.40;16.15;;;4.80;99.90;;;;;;5079015;28;20067;-68
2022/01/29 00:33:30;;;;;;;32.65;15.00;;;4.90;99.90;;;;;;5079339;28;20027;-68
2022/01/29 00:35:58;;;;;;;29.05;15.07;;;4.90;99.90;;;;;;5078977;28;20021;-68
2022/01/29 00:38:25;;;;;;;30.70;14.45;;;4.90;99.90;;;;;;5079154;28;20027;-68
2022/01/29 00:40:52;;;;;;;37.30;15.70;;;4.90;99.90;;;;;;5078899;28;20027;-68
2022/01/29 00:43:20;;;;;;;23.15;13.77;;;4.90;99.90;;;;;;5078957;28;20066;-68
2022/01/29 00:45:47;;;;;;;31.00;15.93;;;4.90;99.90;;;;;;5079444;28;20086;-68
2022/01/29 00:48:14;;;;;;;33.42;14.85;;;4.90;99.90;;;;;;5078258;28;20025;-68
2022/01/29 00:50:41;;;;;;;38.10;14.80;;;4.90;99.90;;;;;;5079655;28;20098;-68
2022/01/29 00:53:08;;;;;;;34.78;15.38;;;4.90;99.90;;;;;;5079714;28;20096;-68
2022/01/29 00:55:36;;;;;;;34.28;16.38;;;4.90;99.90;;;;;;5078457;28;20028;-68
2022/01/29 00:58:03;;;;;;;39.03;16.15;;;5.00;99.90;;;;;;5080793;28;20316;-68
2022/01/29 01:00:31;;;;;;;28.23;13.05;;;5.00;99.90;;;;;;5080045;28;20349;-68
2022/01/29 01:02:59;;;;;;;36.80;15.45;;;5.00;99.90;;;;;;5079785;28;20102;-68
2022/01/29 01:05:26;;;;;;;31.98;15.05;;;5.00;99.90;;;;;;5078446;28;20023;-68
2022/01/29 01:07:54;;;;;;;32.42;15.50;;;5.00;99.90;;;;;;5079057;28;20067;-68
2022/01/29 01:10:21;;;;;;;27.65;13.90;;;5.00;99.90;;;;;;5078188;28;20103;-68
2022/01/29 01:12:49;;;;;;;23.08;11.55;;;5.00;99.90;;;;;;5060473;28;20027;-68
2022/01/29 01:15:16;;;;;;;27.40;11.52;;;5.10;99.90;;;;;;5060867;28;20324;-68
2022/01/29 01:17:43;;;;;;;42.70;14.77;;;5.10;99.90;;;;;;5078429;28;20021;-68
2022/01/29 01:20:11;;;;;;;30.02;12.60;;;5.10;99.90;;;;;;5078227;28;20024;-68
2022/01/29 01:22:38;;;;;;;25.83;12.02;;;5.10;99.90;;;;;;5078269;28;20044;-68
2022/01/29 01:25:07;;;;;;;30.48;13.43;;;5.10;99.90;;;;;;5060299;28;20029;-68
2022/01/29 01:27:34;;;;;;;33.45;14.05;;;5.20;99.90;;;;;;5080242;28;20036;-68
2022/01/29 01:30:02;;;;;;;31.52;14.32;;;5.20;99.90;;;;;;5080922;28;20104;-68
2022/01/29 01:32:29;;;;;;;32.85;14.57;;;5.20;99.90;;;;;;5081285;28;20020;-68
2022/01/29 01:35:06;;;;;;;29.00;12.15;;;5.20;99.90;;;;;;5099307;28;20081;-68
2022/01/29 01:37:46;;;;;;;31.38;12.32;;;5.20;99.90;;;;;;5099097;28;20020;-68
2022/01/29 01:40:15;;;;;;;26.50;12.43;;;5.20;99.90;;;;;;5082753;28;20038;-68
2022/01/29 01:42:42;;;;;;;23.63;11.90;;;5.30;99.90;;;;;;5098899;28;20324;-68
2022/01/29 01:45:09;;;;;;;26.55;12.57;;;5.30;99.90;;;;;;5081080;28;20024;-68
2022/01/29 01:47:37;;;;;;;25.83;12.57;;;5.30;99.90;;;;;;5080878;28;20020;-68
2022/01/29 01:50:06;;;;;;;27.17;12.40;;;5.30;99.90;;;;;;5099161;28;20522;-68
2022/01/29 01:52:33;;;;;;;25.90;11.80;;;5.30;99.90;;;;;;5097816;28;20030;-68
2022/01/29 01:55:00;;;;;;;30.17;12.73;;;5.30;99.90;;;;;;5097618;28;20020;-68
2022/01/29 01:57:28;;;;;;;24.42;12.38;;;5.30;99.90;;;;;;5079922;28;20016;-68
2022/01/29 01:59:55;;;;;;;27.40;12.27;;;5.30;99.90;;;;;;5097982;28;20024;-68
2022/01/29 02:02:22;;;;;;;24.95;11.05;;;5.30;99.90;;;;;;5079799;28;20497;-68
2022/01/29 02:04:50;;;;;;;26.40;11.02;;;5.30;99.90;;;;;;5098185;28;20020;-68
2022/01/29 02:07:18;;;;;;;25.02;11.93;;;5.30;99.90;;;;;;5097525;28;20412;-68
2022/01/29 02:09:46;;;;;;;22.58;11.25;;;5.30;99.90;;;;;;5097622;28;20416;-68
2022/01/29 02:12:14;;;;;;;28.00;13.65;;;5.30;99.90;;;;;;5097514;28;20023;-68
2022/01/29 02:14:44;;;;;;;26.70;11.82;;;5.30;99.90;;;;;;5080235;28;20069;-68
2022/01/29 02:17:13;;;;;;;26.67;13.05;;;5.20;99.90;;;;;;5098656;28;20446;-68
2022/01/29 02:19:40;;;;;;;36.05;11.07;;;5.20;99.90;;;;;;5080300;28;20392;-68
2022/01/29 02:22:07;;;;;;;31.30;13.60;;;5.20;99.90;;;;;;5080877;28;20023;-68
2022/01/29 02:24:36;;;;;;;34.05;13.90;;;5.20;99.90;;;;;;5080275;28;20027;-68
2022/01/29 02:27:03;;;;;;;30.85;14.68;;;5.20;99.90;;;;;;5098039;28;20453;-68
2022/01/29 02:29:34;;;;;;;24.65;12.73;;;5.20;99.90;;;;;;5097824;28;20055;-68
2022/01/29 02:32:02;;;;;;;22.02;12.18;;;5.20;99.90;;;;;;5097945;28;20020;-68
2022/01/29 02:34:31;;;;;;;27.90;12.30;;;5.20;99.90;;;;;;5062736;28;20021;-68
2022/01/29 02:36:59;;;;;;;35.20;15.38;;;5.20;99.90;;;;;;5097044;28;20416;-68
2022/01/29 02:39:26;;;;;;;27.40;12.77;;;5.20;99.90;;;;;;5062343;28;20157;-68
2022/01/29 02:41:57;;;;;;;29.38;11.40;;;5.20;99.90;;;;;;5096855;28;20478;-68
2022/01/29 02:44:25;;;;;;;27.05;13.25;;;5.20;99.90;;;;;;5097550;28;20101;-68
2022/01/29 02:46:54;;;;;;;26.88;13.93;;;5.20;99.90;;;;;;5096902;28;20047;-68
2022/01/29 02:49:24;;;;;;;27.52;14.15;;;5.10;99.90;;;;;;5097570;28;20270;-68
2022/01/29 02:51:54;;;;;;;30.92;13.35;;;5.20;99.90;;;;;;5097362;28;20020;-68
2022/01/29 02:54:21;;;;;;;33.63;13.85;;;5.10;99.90;;;;;;5096932;28;20022;-68
2022/01/29 02:56:49;;;;;;;33.50;12.98;;;5.10;99.90;;;;;;5097552;28;20362;-68
2022/01/29 02:59:17;;;;;;;32.22;14.40;;;5.10;99.90;;;;;;5097865;28;20061;-68
2022/01/29 03:01:44;;;;;;;26.52;12.98;;;5.10;99.90;;;;;;5098128;28;20028;-67
2022/01/29 03:04:11;;;;;;;27.63;14.10;;;5.10;99.90;;;;;;5097590;28;20012;-68
2022/01/29 03:06:38;;;;;;;25.00;12.68;;;5.00;99.90;;;;;;5080354;28;20042;-68
2022/01/29 03:09:06;;;;;;;38.00;14.75;;;5.00;99.90;;;;;;5063262;28;20047;-67
2022/01/29 03:11:33;;;;;;;27.40;14.00;;;5.00;99.90;;;;;;5097424;28;20411;-68
2022/01/29 03:14:01;;;;;;;34.90;14.85;;;5.00;99.90;;;;;;5098034;28;20020;-67
2022/01/29 03:16:28;;;;;;;26.13;14.10;;;4.90;99.90;;;;;;5079455;28;20028;-67
2022/01/29 03:18:55;;;;;;;24.48;11.32;;;4.90;99.90;;;;;;5078771;28;20016;-67
2022/01/29 03:21:22;;;;;;;27.52;13.98;;;4.90;99.90;;;;;;5096458;28;20024;-68
2022/01/29 03:23:50;;;;;;;35.15;16.10;;;4.90;99.90;;;;;;5096408;28;20027;-67
2022/01/29 03:26:17;;;;;;;38.08;15.30;;;4.80;99.90;;;;;;5096327;28;20020;-68
2022/01/29 03:28:45;;;;;;;28.17;14.25;;;4.80;99.90;;;;;;5075128;28;20048;-68
2022/01/29 03:31:12;;;;;;;32.53;14.90;;;4.80;99.90;;;;;;5076082;28;20320;-67
2022/01/29 03:33:40;;;;;;;31.15;13.70;;;4.80;99.90;;;;;;5076233;28;20021;-67
2022/01/29 03:36:08;;;;;;;37.63;15.88;;;4.80;99.90;;;;;;5076157;28;20036;-67
2022/01/29 03:38:39;;;;;;;38.40;15.80;;;4.80;99.90;;;;;;5080639;28;20021;-67
2022/01/29 03:41:09;;;;;;;37.35;15.50;;;4.80;99.90;;;;;;5081442;28;20033;-67
2022/01/29 03:43:43;;;;;;;31.77;14.50;;;4.80;99.90;;;;;;5080938;28;20031;-67
2022/01/29 03:46:12;;;;;;;38.30;16.83;;;4.80;99.90;;;;;;5080799;28;20351;-67
2022/01/29 03:48:39;;;;;;;37.50;16.58;;;4.70;99.90;;;;;;5079966;28;20116;-68
2022/01/29 03:51:06;;;;;;;26.08;11.30;;;4.70;99.90;;;;;;5080734;28;20070;-67
2022/01/29 03:53:33;;;;;;;41.17;19.15;;;4.70;99.90;;;;;;5081275;28;20020;-67
2022/01/29 03:56:01;;;;;;;37.85;16.45;;;4.70;99.90;;;;;;5079886;28;20074;-67
2022/01/29 03:58:28;;;;;;;32.15;16.35;;;4.70;99.90;;;;;;5080530;28;20016;-67
2022/01/29 04:00:55;;;;;;;37.92;16.10;;;4.70;99.90;;;;;;5079732;28;20059;-68
2022/01/29 04:03:24;;;;;;;28.00;12.70;;;4.70;99.90;;;;;;5078692;28;20074;-67
2022/01/29 04:05:51;;;;;;;27.63;13.88;;;4.70;99.90;;;;;;5079175;28;20025;-67
2022/01/29 04:08:19;;;;;;;36.28;16.77;;;4.70;99.90;;;;;;5079660;28;20024;-67
2022/01/29 04:10:50;;;;;;;35.92;16.15;;;4.70;99.90;;;;;;5079313;28;20037;-68
2022/01/29 04:13:22;;;;;;;33.60;14.48;;;4.80;99.90;;;;;;5079420;28;20035;-67
2022/01/29 04:15:50;;;;;;;25.40;13.45;;;4.80;99.90;;;;;;5079733;28;20098;-67
2022/01/29 04:18:18;;;;;;;33.92;14.50;;;4.80;99.90;;;;;;5079279;28;20112;-68
2022/01/29 04:20:45;;;;;;;31.88;14.23;;;4.80;99.90;;;;;;5079335;28;20103;-67
2022/01/29 04:23:13;;;;;;;37.47;15.30;;;4.80;99.90;;;;;;5080217;28;20021;-67
2022/01/29 04:25:41;;;;;;;38.30;14.52;;;4.80;99.90;;;;;;5080183;28;20017;-67
2022/01/29 04:28:11;;;;;;;31.75;14.82;;;4.80;99.90;;;;;;5062252;28;20337;-68
2022/01/29 04:30:51;;;;;;;28.38;14.07;;;4.80;99.90;;;;;;5080010;28;20032;-67
2022/01/29 04:35:46;;;;;;;40.70;15.35;;;4.80;99.90;;;;;;5080055;28;20146;-68
2022/01/29 04:38:13;;;;;;;39.97;15.38;;;4.80;99.90;;;;;;5079286;28;20028;-68
2022/01/29 04:40:41;;;;;;;36.45;15.27;;;4.80;99.90;;;;;;5080031;28;20447;-67
2022/01/29 04:43:08;;;;;;;31.25;14.10;;;4.90;99.90;;;;;;5079417;28;20024;-67
2022/01/29 04:45:35;;;;;;;33.88;12.98;;;4.80;99.90;;;;;;5078905;28;20028;-67
2022/01/29 04:48:03;;;;;;;42.33;16.77;;;4.90;99.90;;;;;;5078317;28;20023;-67
2022/01/29 04:50:30;;;;;;;43.83;17.23;;;4.90;99.90;;;;;;5078725;28;20017;-67
2022/01/29 04:52:57;;;;;;;37.05;16.48;;;4.90;99.90;;;;;;5078920;28;20028;-67
2022/01/29 04:55:26;;;;;;;41.95;15.38;;;4.90;99.90;;;;;;5079133;28;20021;-68
2022/01/29 04:57:52;;;;;;;32.83;14.02;;;4.90;99.90;;;;;;5078738;28;20016;-67
2022/01/29 05:00:20;;;;;;;39.65;15.38;;;4.90;99.90;;;;;;5060967;28;20025;-67
2022/01/29 05:02:55;;;;;;;37.70;16.20;;;4.90;99.90;;;;;;5078661;28;20048;-67
2022/01/29 05:05:23;;;;;;;39.08;15.75;;;4.90;99.90;;;;;;5079196;28;20035;-67
2022/01/29 05:07:50;;;;;;;28.75;12.57;;;4.90;99.90;;;;;;5079393;28;20024;-67
2022/01/29 05:10:19;;;;;;;32.00;13.63;;;5.00;99.90;;;;;;5079532;28;20448;-67
2022/01/29 05:13:05;;;;;;;31.35;13.30;;;5.00;99.90;;;;;;5079448;28;20029;-67
2022/01/29 05:15:45;;;;;;;29.60;13.40;;;5.00;99.90;;;;;;5079198;28;20025;-67
2022/01/29 05:29:16;;;;;;;28.75;11.23;;;5.00;99.90;;;;;;5093673;28;20063;-67
2022/01/29 05:31:44;;;;;;;27.33;12.68;;;5.10;99.90;;;;;;5098182;28;20024;-67
2022/01/29 05:34:11;;;;;;;22.70;9.90;;;5.10;99.90;;;;;;5098198;28;20420;-67
2022/01/29 05:36:39;;;;;;;23.45;11.68;;;5.10;99.90;;;;;;5080949;28;20024;-67
2022/01/29 05:39:06;;;;;;;26.95;12.30;;;5.10;99.90;;;;;;5098816;28;20012;-67
2022/01/29 05:41:33;;;;;;;30.00;13.55;;;5.20;99.90;;;;;;5097982;28;20024;-67
2022/01/29 05:44:00;;;;;;;24.90;12.35;;;5.20;99.90;;;;;;5080047;28;20020;-67
2022/01/29 05:46:27;;;;;;;25.40;11.80;;;5.20;99.90;;;;;;5079993;28;20028;-68
2022/01/29 05:48:54;;;;;;;29.13;13.10;;;5.20;99.90;;;;;;5099324;28;20020;-68
2022/01/29 05:51:22;;;;;;;25.65;13.23;;;5.20;99.90;;;;;;5098747;28;20016;-68
2022/01/29 05:53:49;;;;;;;22.02;10.95;;;5.20;99.90;;;;;;5099039;28;20020;-68
2022/01/29 05:56:17;;;;;;;25.85;12.40;;;5.20;99.90;;;;;;5098742;28;20459;-68
2022/01/29 05:58:44;;;;;;;30.63;12.98;;;5.20;99.90;;;;;;5097971;28;20050;-68
2022/01/29 06:01:11;;;;;;;24.38;11.10;;;5.30;99.90;;;;;;5098758;28;20016;-68
2022/01/29 06:03:38;;;;;;;24.52;10.63;;;5.30;99.90;;;;;;5080908;28;20119;-68
2022/01/29 06:06:06;;;;;;;23.25;11.55;;;5.30;99.90;;;;;;5098475;28;20293;-68
2022/01/29 06:08:33;;;;;;;25.38;12.45;;;5.30;99.90;;;;;;5097518;28;20027;-68
2022/01/29 06:11:00;;;;;;;22.15;12.25;;;5.30;99.90;;;;;;5097900;28;20021;-68
2022/01/29 06:13:27;;;;;;;25.35;11.40;;;5.30;99.90;;;;;;5063153;28;20016;-67
2022/01/29 06:15:55;;;;;;;25.33;12.35;;;5.30;99.90;;;;;;5097969;28;20104;-68
2022/01/29 06:18:24;;;;;;;34.20;13.73;;;5.30;99.90;;;;;;5097274;28;20031;-68
2022/01/29 06:20:54;;;;;;;23.50;13.25;;;5.30;99.90;;;;;;5097391;28;20351;-68
2022/01/29 06:23:28;;;;;;;19.75;10.02;;;5.30;99.90;;;;;;5097414;28;20024;-67
2022/01/29 06:25:57;;;;;;;23.38;11.30;;;5.30;99.90;;;;;;5097667;28;20024;-67
2022/01/29 06:28:24;;;;;;;25.42;10.05;;;5.30;99.90;;;;;;5075674;28;20060;-67
2022/01/29 06:30:52;;;;;;;25.92;11.00;;;5.40;99.90;;;;;;5077791;28;20031;-68
2022/01/29 06:33:19;;;;;;;19.02;9.90;;;5.40;99.90;;;;;;5078467;28;20021;-67
2022/01/29 06:35:47;;;;;;;17.20;9.07;;;5.40;99.90;;;;;;5076667;28;20034;-68
2022/01/29 06:38:15;;;;;;;16.85;9.23;;;5.40;99.90;;;;;;5077757;28;20016;-67
2022/01/29 06:40:43;;;;;;;20.27;10.68;;;5.40;99.90;;;;;;5077111;28;20025;-68
2022/01/29 06:43:11;;;;;;;21.52;10.57;;;5.50;99.90;;;;;;5078063;28;20431;-68
2022/01/29 06:45:41;;;;;;;15.35;8.73;;;5.50;99.90;;;;;;5078683;28;20286;-68
2022/01/29 06:48:09;;;;;;;23.73;12.50;;;5.50;99.90;;;;;;5077886;28;20074;-68
2022/01/29 06:50:37;;;;;;;17.75;8.80;;;5.50;99.90;;;;;;5076421;28;20078;-68
2022/01/29 06:53:06;;;;;;;16.88;10.75;;;5.50;99.90;;;;;;5076704;28;20096;-68
2022/01/29 06:55:33;;;;;;;18.00;8.57;;;5.60;99.90;;;;;;5076388;28;20491;-67
2022/01/29 06:58:01;;;;;;;16.85;8.90;;;5.60;99.90;;;;;;5076867;28;20048;-67
2022/01/29 07:00:28;;;;;;;17.77;9.52;;;5.70;99.90;;;;;;5075344;28;20033;-68
2022/01/29 07:02:55;;;;;;;16.25;9.98;;;5.70;99.90;;;;;;5077020;28;20031;-68
2022/01/29 07:05:23;;;;;;;11.38;6.47;;;5.70;99.90;;;;;;5075375;28;20024;-67
2022/01/29 07:07:50;;;;;;;12.57;6.22;;;5.70;99.90;;;;;;5076451;28;20029;-70
2022/01/29 07:10:18;;;;;;;20.77;11.93;;;5.80;99.90;;;;;;5076010;28;20070;-71
2022/01/29 07:12:45;;;;;;;16.88;11.38;;;5.80;99.90;;;;;;5076272;28;20409;-71
2022/01/29 07:15:13;;;;;;;12.80;7.45;;;5.80;99.90;;;;;;5077316;28;20028;-71
2022/01/29 07:17:41;;;;;;;13.13;8.23;;;5.80;99.90;;;;;;5076469;28;20098;-71
2022/01/29 07:20:10;;;;;;;10.30;6.70;;;5.80;99.90;;;;;;5077223;28;20099;-70
2022/01/29 07:22:39;;;;;;;14.50;8.18;;;5.90;99.90;;;;;;5077287;28;20025;-71
2022/01/29 07:25:07;;;;;;;14.45;8.07;;;5.90;99.90;;;;;;5077071;28;20028;-72
2022/01/29 07:27:35;;;;;;;18.15;9.98;;;5.90;99.90;;;;;;5078857;28;20032;-73
2022/01/29 07:30:03;;;;;;;22.67;11.43;;;5.90;99.90;;;;;;5097271;28;20026;-70
2022/01/29 07:32:31;;;;;;;18.10;10.15;;;6.00;99.90;;;;;;5096422;28;20412;-69
2022/01/29 07:34:59;;;;;;;19.10;10.85;;;6.00;99.90;;;;;;5096265;28;20040;-68
2022/01/29 07:37:26;;;;;;;22.25;10.70;;;6.00;99.90;;;;;;5096857;28;20369;-69
2022/01/29 07:39:53;;;;;;;20.73;11.63;;;6.00;99.90;;;;;;5061672;28;20028;-71
2022/01/29 07:42:21;;;;;;;19.63;11.55;;;6.00;99.90;;;;;;5079129;28;20024;-71
2022/01/29 07:44:48;;;;;;;21.10;11.13;;;6.00;99.90;;;;;;5078413;28;20028;-71
2022/01/29 07:47:15;;;;;;;24.48;12.27;;;6.00;99.90;;;;;;5097042;28;20099;-72
2022/01/29 07:49:42;;;;;;;20.85;11.48;;;6.00;99.90;;;;;;5078993;28;20103;-71
2022/01/29 07:52:10;;;;;;;27.13;13.82;;;6.00;99.90;;;;;;5096285;28;20088;-70
2022/01/29 07:54:37;;;;;;;25.08;12.38;;;6.00;99.90;;;;;;5097364;28;20024;-72
2022/01/29 07:57:05;;;;;;;25.90;11.75;;;6.00;99.90;;;;;;5097338;28;20069;-71
2022/01/29 07:59:32;;;;;;;20.40;11.23;;;6.00;99.90;;;;;;5097298;28;20058;-70
2022/01/29 08:01:59;;;;;;;26.70;13.25;;;6.00;99.90;;;;;;5079204;28;20020;-70
2022/01/29 08:04:27;;;;;;;28.83;12.57;;;6.00;99.90;;;;;;5097145;28;20043;-70
2022/01/29 08:06:54;;;;;;;29.88;14.65;;;6.00;99.90;;;;;;5097729;28;20415;-70
2022/01/29 08:09:22;;;;;;;23.90;11.85;;;6.00;99.90;;;;;;5097254;28;20016;-67
2022/01/29 08:11:49;;;;;;;22.88;12.90;;;6.10;99.90;;;;;;5097032;28;20443;-67
2022/01/29 08:14:16;;;;;;;24.42;11.82;;;6.00;99.90;;;;;;5096375;28;20028;-67
2022/01/29 08:16:43;;;;;;;27.17;12.82;;;6.10;99.90;;;;;;5078325;28;20165;-66
2022/01/29 08:19:10;;;;;;;28.27;12.77;;;6.10;99.90;;;;;;5096537;28;20024;-66
2022/01/29 08:21:38;;;;;;;24.33;12.32;;;6.10;99.90;;;;;;5078020;28;20020;-67
2022/01/29 08:24:09;;;;;;;31.75;14.82;;;6.10;99.90;;;;;;5098916;28;20408;-70
2022/01/29 08:26:36;;;;;;;28.38;12.68;;;6.10;99.90;;;;;;5099527;28;20095;-67
2022/01/29 08:29:03;;;;;;;28.48;13.27;;;6.10;99.90;;;;;;5099595;28;20236;-67
2022/01/29 08:31:30;;;;;;;35.45;16.85;;;6.10;99.90;;;;;;5099318;28;20439;-67
2022/01/29 08:33:58;;;;;;;25.33;12.98;;;6.10;99.90;;;;;;5082265;28;20027;-67
2022/01/29 08:36:25;;;;;;;28.52;14.70;;;6.20;99.90;;;;;;5081793;28;20035;-66
2022/01/29 08:38:52;;;;;;;29.48;17.10;;;6.20;99.90;;;;;;5083143;28;20404;-67
2022/01/29 08:41:20;;;;;;;29.48;14.32;;;6.20;99.90;;;;;;5100033;28;20056;-68
2022/01/29 08:43:47;;;;;;;29.35;14.80;;;6.20;99.90;;;;;;5100379;28;20055;-67
2022/01/29 08:46:15;;;;;;;30.10;16.58;;;6.20;99.90;;;;;;5082522;28;20435;-66
2022/01/29 08:48:42;;;;;;;35.13;16.48;;;6.20;99.90;;;;;;5100037;28;20036;-67
2022/01/29 08:51:10;;;;;;;31.95;16.65;;;6.20;99.90;;;;;;5099950;28;20099;-67
2022/01/29 08:53:37;;;;;;;30.25;12.85;;;6.20;99.90;;;;;;5100196;28;20324;-67
2022/01/29 08:56:05;;;;;;;30.17;13.25;;;6.20;99.90;;;;;;5082075;28;20012;-66
2022/01/29 08:58:32;;;;;;;32.58;14.85;;;6.20;99.90;;;;;;5099572;28;20431;-67
2022/01/29 09:01:00;;;;;;;32.70;15.48;;;6.20;99.90;;;;;;5081551;28;20024;-67
2022/01/29 09:03:28;;;;;;;27.08;12.77;;;6.30;99.90;;;;;;5099074;28;20023;-67
2022/01/29 09:05:55;;;;;;;25.98;13.27;;;6.30;99.90;;;;;;5081353;28;20315;-67
2022/01/29 09:08:22;;;;;;;34.42;16.27;;;6.30;99.90;;;;;;5080993;28;20032;-67
2022/01/29 09:10:51;;;;;;;34.67;15.02;;;6.30;99.90;;;;;;5098839;28;20032;-67
2022/01/29 09:13:19;;;;;;;27.75;14.50;;;6.30;99.90;;;;;;5099138;28;20078;-67
2022/01/29 09:15:46;;;;;;;30.25;13.00;;;6.30;99.90;;;;;;5080759;28;20433;-67
2022/01/29 09:18:13;;;;;;;25.95;13.65;;;6.40;99.90;;;;;;5098674;28;20024;-67
2022/01/29 09:20:41;;;;;;;27.90;13.13;;;6.40;99.90;;;;;;5081615;28;20024;-67
2022/01/29 09:23:09;;;;;;;32.50;15.52;;;6.40;99.90;;;;;;5099699;28;20020;-67
2022/01/29 09:25:41;;;;;;;32.45;13.50;;;6.40;99.90;;;;;;5099390;28;20416;-67
2022/01/29 09:28:13;;;;;;;26.98;12.02;;;6.40;99.90;;;;;;5099261;28;20077;-67
2022/01/29 09:30:43;;;;;;;28.50;13.30;;;6.40;99.90;;;;;;5099218;28;20020;-67
2022/01/29 09:33:10;;;;;;;35.70;13.65;;;6.30;99.90;;;;;;5099099;28;20024;-67
2022/01/29 09:35:38;;;;;;;35.60;14.35;;;6.30;99.90;;;;;;5099506;28;20058;-67
2022/01/29 09:38:07;;;;;;;25.85;12.10;;;6.40;99.90;;;;;;5081449;28;20031;-67
2022/01/29 09:40:35;;;;;;;20.25;11.43;;;6.40;99.90;;;;;;5098590;28;20088;-67
2022/01/29 09:43:05;;;;;;;36.33;13.32;;;6.40;99.90;;;;;;5097972;28;20035;-67
2022/01/29 09:45:34;;;;;;;30.80;12.35;;;6.40;99.90;;;;;;5098324;28;20463;-67
2022/01/29 09:48:02;;;;;;;26.23;11.05;;;6.40;99.90;;;;;;5080112;28;20081;-67
2022/01/29 09:50:39;;;;;;;25.92;9.70;;;6.40;99.90;;;;;;5080128;28;20512;-67
2022/01/29 09:53:08;;;;;;;20.73;9.68;;;6.50;99.90;;;;;;5097865;28;20077;-67
2022/01/29 09:55:36;;;;;;;22.92;10.60;;;6.50;99.90;;;;;;5080287;28;20416;-66
2022/01/29 09:58:03;;;;;;;20.40;9.75;;;6.50;99.90;;;;;;5079991;28;20050;-67
2022/01/29 10:00:31;;;;;;;15.45;8.40;;;6.60;99.90;;;;;;5063192;28;20084;-67
2022/01/29 10:03:19;;;;;;;22.15;10.68;;;6.60;99.90;;;;;;5098716;28;20024;-67
2022/01/29 10:05:52;;;;;;;21.52;9.02;;;6.60;99.90;;;;;;5098474;28;20328;-66
2022/01/29 10:08:21;;;;;;;17.42;8.65;;;6.70;99.90;;;;;;5080725;28;20043;-67
2022/01/29 10:10:50;;;;;;;16.88;8.77;;;6.70;99.90;;;;;;5098305;28;20031;-67
2022/01/29 10:13:36;;;;;;;17.13;8.93;;;6.80;99.90;;;;;;5099014;28;20027;-66
2022/01/29 10:16:21;;;;;;;17.70;9.13;;;6.80;99.90;;;;;;5098829;28;20024;-66
2022/01/29 10:19:04;;;;;;;17.73;7.68;;;6.90;99.90;;;;;;5098469;28;20032;-66
2022/01/29 10:21:37;;;;;;;17.85;7.68;;;6.90;99.90;;;;;;5079967;28;20024;-66
2022/01/29 10:24:18;;;;;;;16.35;8.25;;;6.90;99.90;;;;;;5097383;28;20020;-67
2022/01/29 10:26:50;;;;;;;13.93;6.80;;;6.90;99.90;;;;;;5079195;28;20424;-67
2022/01/29 10:29:23;;;;;;;14.38;7.53;;;6.90;99.90;;;;;;5097163;28;20122;-67
2022/01/29 10:31:57;;;;;;;16.58;8.70;;;7.00;99.90;;;;;;5096999;28;20020;-66
2022/01/29 10:34:26;;;;;;;13.00;7.20;;;7.10;99.90;;;;;;5079176;28;20081;-66
2022/01/29 10:37:13;;;;;;;14.57;7.13;;;7.10;99.90;;;;;;5097901;28;20425;-67
2022/01/29 10:39:41;;;;;;;15.35;7.18;;;7.20;99.90;;;;;;5096984;28;20025;-66
2022/01/29 10:42:16;;;;;;;10.98;6.00;;;7.30;99.90;;;;;;5096974;28;20031;-66
2022/01/29 10:44:46;;;;;;;15.45;7.70;;;7.30;99.90;;;;;;5097312;28;20024;-66
2022/01/29 10:47:15;;;;;;;10.20;5.45;;;7.40;99.90;;;;;;5097661;28;20023;-66
2022/01/29 10:49:52;;;;;;;11.73;6.70;;;7.50;99.90;;;;;;5098344;28;20031;-66
2022/01/29 10:52:31;;;;;;;11.68;5.63;;;7.60;99.90;;;;;;5098368;28;20432;-66
2022/01/29 10:55:02;;;;;;;11.68;5.55;;;7.70;99.90;;;;;;5097745;28;20489;-66
2022/01/29 10:57:41;;;;;;;13.27;5.90;;;7.70;99.90;;;;;;5097676;28;20024;-68
2022/01/29 11:00:21;;;;;;;10.63;5.88;;;7.80;99.90;;;;;;5079743;28;20020;-67
2022/01/29 11:02:51;;;;;;;10.48;5.68;;;7.80;99.90;;;;;;5097853;28;20024;-67
2022/01/29 11:05:19;;;;;;;9.30;5.00;;;7.90;99.90;;;;;;5096703;28;20031;-67
2022/01/29 11:07:50;;;;;;;9.75;4.75;;;7.90;99.90;;;;;;5097281;28;20107;-67
2022/01/29 11:10:20;;;;;;;6.57;4.38;;;7.90;99.90;;;;;;5096629;28;20024;-67
2022/01/29 11:12:48;;;;;;;6.80;3.80;;;7.90;99.90;;;;;;5097000;28;20020;-67
2022/01/29 11:15:18;;;;;;;6.85;4.18;;;7.80;99.90;;;;;;5096557;28;20028;-67
2022/01/29 11:17:48;;;;;;;7.72;4.32;;;7.80;99.90;;;;;;5096450;28;20031;-67
2022/01/29 11:20:17;;;;;;;6.70;3.80;;;7.80;99.90;;;;;;5096595;28;20103;-67
2022/01/29 11:22:52;;;;;;;7.30;3.72;;;7.80;99.90;;;;;;5096606;28;20078;-67
2022/01/29 11:25:34;;;;;;;5.25;3.15;;;7.90;99.90;;;;;;5096473;28;20048;-67
2022/01/29 11:28:18;;;;;;;8.30;4.50;;;7.80;99.90;;;;;;5096836;28;20432;-67
2022/01/29 11:31:07;;;;;;;9.23;4.65;;;7.80;99.90;;;;;;5079362;28;20024;-67
2022/01/29 11:33:58;;;;;;;7.85;3.53;;;7.80;99.90;;;;;;5097275;28;20028;-67
2022/01/29 11:36:58;;;;;;;5.15;3.58;;;7.80;99.90;;;;;;5097322;28;20024;-67
2022/01/29 11:39:29;;;;;;;7.35;3.88;;;7.80;99.90;;;;;;5081505;28;20102;-67
2022/01/29 11:42:14;;;;;;;8.70;4.68;;;7.80;99.90;;;;;;5097614;28;20087;-67
2022/01/29 11:44:42;;;;;;;5.75;3.58;;;7.80;99.90;;;;;;5097834;28;20095;-67
2022/01/29 11:47:46;;;;;;;6.38;3.70;;;7.90;99.90;;;;;;5079182;28;20028;-67
2022/01/29 11:50:28;;;;;;;6.88;4.32;;;7.90;99.90;;;;;;5096179;28;20463;-67
2022/01/29 11:53:01;;;;;;;6.60;4.07;;;7.90;99.90;;;;;;5078289;28;20024;-67
2022/01/29 11:55:40;;;;;;;6.85;4.00;;;7.90;99.90;;;;;;5078518;28;20443;-68
2022/01/29 11:58:17;;;;;;;6.20;4.03;;;8.00;99.90;;;;;;5098181;28;20442;-67
2022/01/29 12:01:04;;;;;;;6.38;4.20;;;8.00;99.90;;;;;;5100619;28;20031;-67
2022/01/29 12:03:35;;;;;;;7.25;3.72;;;8.00;99.90;;;;;;5082372;28;20063;-67
2022/01/29 12:06:21;;;;;;;5.80;3.50;;;8.00;99.90;;;;;;5100567;28;20020;-70
2022/01/29 12:09:01;;;;;;;8.52;4.68;;;7.90;99.90;;;;;;5099779;28;20036;-67
2022/01/29 12:11:29;;;;;;;9.30;4.65;;;7.90;99.90;;;;;;5100337;28;20070;-67
2022/01/29 12:14:15;;;;;;;8.60;4.72;;;7.90;99.90;;;;;;5100663;28;20016;-67
2022/01/29 12:16:58;;;;;;;9.27;5.38;;;7.80;99.90;;;;;;5101327;28;20019;-67
2022/01/29 12:19:44;;;;;;;8.77;5.05;;;7.90;99.90;;;;;;5082737;28;20052;-67
2022/01/29 12:22:26;;;;;;;9.68;4.88;;;7.90;99.90;;;;;;5082693;28;20053;-67
2022/01/29 12:24:59;;;;;;;7.75;4.72;;;7.90;99.90;;;;;;5100679;28;20032;-67
2022/01/29 12:27:44;;;;;;;8.30;5.00;;;7.90;99.90;;;;;;5100398;28;20027;-67
2022/01/29 12:30:19;;;;;;;7.55;4.35;;;7.90;99.90;;;;;;5079681;28;20043;-67
2022/01/29 12:32:58;;;;;;;7.40;4.80;;;7.90;99.90;;;;;;5079142;28;20021;-67
2022/01/29 12:35:43;;;;;;;10.43;5.28;;;7.90;99.90;;;;;;5078056;28;20021;-67
2022/01/29 12:38:16;;;;;;;7.75;4.45;;;7.90;99.90;;;;;;5061390;28;20055;-67
2022/01/29 12:40:58;;;;;;;7.28;4.63;;;7.90;99.90;;;;;;5079624;28;20033;-67
2022/01/29 12:43:32;;;;;;;9.27;6.78;;;7.90;99.90;;;;;;5079098;28;20416;-67
2022/01/29 12:46:18;;;;;;;9.25;5.28;;;7.90;99.90;;;;;;5079002;28;20085;-67
2022/01/29 12:49:07;;;;;;;9.57;5.72;;;7.90;99.90;;;;;;5078897;28;20032;-67
2022/01/29 12:51:59;;;;;;;12.68;7.18;;;7.90;99.90;;;;;;5078942;28;20020;-67
2022/01/29 12:54:29;;;;;;;11.30;6.85;;;7.90;99.90;;;;;;5079567;28;20322;-67
2022/01/29 12:56:57;;;;;;;10.55;5.72;;;7.90;99.90;;;;;;5079544;28;20027;-67
2022/01/29 12:59:24;;;;;;;12.68;7.20;;;8.00;99.90;;;;;;5061996;28;20028;-67
2022/01/29 13:01:56;;;;;;;14.02;7.97;;;8.00;99.90;;;;;;5079758;28;20351;-67
2022/01/29 13:04:30;;;;;;;13.57;7.47;;;8.00;99.90;;;;;;5079441;28;20317;-67
2022/01/29 13:07:07;;;;;;;10.65;7.20;;;8.00;99.90;;;;;;5079605;28;20320;-67
2022/01/29 13:09:36;;;;;;;10.57;7.45;;;8.10;99.90;;;;;;5078838;28;20060;-67